sensor_id;sensor_type;location;lat;lon;timestamp;P1;durP1;ratioP1;P2;durP2;ratioP2
80508;SDS011;69838;52.602;13.434;2023-07-29T00:00:18;14.50;;;9.65;;
80508;SDS011;69838;52.602;13.434;2023-07-29T00:01:04;15.20;;;10.15;;
80508;SDS011;69838;52.602;13.434;2023-07-29T00:01:49;13.25;;;9.23;;
80508;SDS011;69838;52.602;13.434;2023-07-29T00:02:36;17.48;;;9.98;;
80508;SDS011;69838;52.602;13.434;2023-07-29T00:03:21;15.35;;;10.75;;
80508;SDS011;69838;52.602;13.434;2023-07-29T00:04:07;17.85;;;10.77;;
80508;SDS011;69838;52.602;13.434;2023-07-29T00:04:53;15.05;;;10.05;;
80508;SDS011;69838;52.602;13.434;2023-07-29T00:05:39;16.27;;;9.85;;
80508;SDS011;69838;52.602;13.434;2023-07-29T00:06:26;15.07;;;9.13;;
80508;SDS011;69838;52.602;13.434;2023-07-29T00:07:11;15.60;;;9.98;;
80508;SDS011;69838;52.602;13.434;2023-07-29T00:07:57;16.08;;;10.30;;
80508;SDS011;69838;52.602;13.434;2023-07-29T00:08:42;16.00;;;10.13;;
80508;SDS011;69838;52.602;13.434;2023-07-29T00:09:27;18.92;;;11.57;;
80508;SDS011;69838;52.602;13.434;2023-07-29T00:10:12;18.90;;;12.00;;
80508;SDS011;69838;52.602;13.434;2023-07-29T00:10:58;20.98;;;12.88;;
80508;SDS011;69838;52.602;13.434;2023-07-29T00:11:43;28.45;;;16.35;;
80508;SDS011;69838;52.602;13.434;2023-07-29T00:12:28;27.75;;;17.10;;
80508;SDS011;69838;52.602;13.434;2023-07-29T00:13:13;31.70;;;16.15;;
80508;SDS011;69838;52.602;13.434;2023-07-29T00:13:59;28.33;;;14.43;;
80508;SDS011;69838;52.602;13.434;2023-07-29T00:14:45;27.67;;;14.38;;
80508;SDS011;69838;52.602;13.434;2023-07-29T00:15:31;30.52;;;14.63;;
80508;SDS011;69838;52.602;13.434;2023-07-29T00:16:17;30.98;;;14.15;;
80508;SDS011;69838;52.602;13.434;2023-07-29T00:17:02;31.17;;;15.15;;
80508;SDS011;69838;52.602;13.434;2023-07-29T00:17:47;26.55;;;14.13;;
80508;SDS011;69838;52.602;13.434;2023-07-29T00:18:32;23.20;;;12.45;;
80508;SDS011;69838;52.602;13.434;2023-07-29T00:19:18;16.90;;;11.10;;
80508;SDS011;69838;52.602;13.434;2023-07-29T00:20:05;20.67;;;10.40;;
80508;SDS011;69838;52.602;13.434;2023-07-29T00:20:51;18.10;;;10.63;;
80508;SDS011;69838;52.602;13.434;2023-07-29T00:21:36;16.65;;;10.45;;
80508;SDS011;69838;52.602;13.434;2023-07-29T00:22:22;18.20;;;10.57;;
80508;SDS011;69838;52.602;13.434;2023-07-29T00:23:07;17.85;;;11.57;;
80508;SDS011;69838;52.602;13.434;2023-07-29T00:23:52;18.33;;;10.40;;
80508;SDS011;69838;52.602;13.434;2023-07-29T00:24:39;16.45;;;11.43;;
80508;SDS011;69838;52.602;13.434;2023-07-29T00:25:24;18.52;;;11.07;;
80508;SDS011;69838;52.602;13.434;2023-07-29T00:26:10;18.10;;;11.35;;
80508;SDS011;69838;52.602;13.434;2023-07-29T00:26:55;18.55;;;11.85;;
80508;SDS011;69838;52.602;13.434;2023-07-29T00:27:41;20.35;;;11.63;;
80508;SDS011;69838;52.602;13.434;2023-07-29T00:28:27;17.92;;;11.15;;
80508;SDS011;69838;52.602;13.434;2023-07-29T00:29:12;20.02;;;11.60;;
80508;SDS011;69838;52.602;13.434;2023-07-29T00:29:58;22.73;;;13.13;;
80508;SDS011;69838;52.602;13.434;2023-07-29T00:30:43;17.23;;;12.00;;
80508;SDS011;69838;52.602;13.434;2023-07-29T00:31:28;20.58;;;11.73;;
80508;SDS011;69838;52.602;13.434;2023-07-29T00:32:13;18.02;;;11.68;;
80508;SDS011;69838;52.602;13.434;2023-07-29T00:32:59;18.02;;;11.73;;
80508;SDS011;69838;52.602;13.434;2023-07-29T00:33:44;17.77;;;11.10;;
80508;SDS011;69838;52.602;13.434;2023-07-29T00:34:29;18.65;;;12.20;;
80508;SDS011;69838;52.602;13.434;2023-07-29T00:35:15;19.15;;;11.40;;
80508;SDS011;69838;52.602;13.434;2023-07-29T00:36:01;16.10;;;10.35;;
80508;SDS011;69838;52.602;13.434;2023-07-29T00:36:47;16.77;;;10.43;;
80508;SDS011;69838;52.602;13.434;2023-07-29T00:37:33;17.05;;;10.18;;
80508;SDS011;69838;52.602;13.434;2023-07-29T00:38:18;16.48;;;9.70;;
80508;SDS011;69838;52.602;13.434;2023-07-29T00:39:03;16.63;;;10.57;;
80508;SDS011;69838;52.602;13.434;2023-07-29T00:39:49;15.13;;;9.65;;
80508;SDS011;69838;52.602;13.434;2023-07-29T00:40:35;13.70;;;9.55;;
80508;SDS011;69838;52.602;13.434;2023-07-29T00:41:20;15.85;;;9.82;;
80508;SDS011;69838;52.602;13.434;2023-07-29T00:42:06;16.95;;;10.63;;
80508;SDS011;69838;52.602;13.434;2023-07-29T00:42:51;16.20;;;9.73;;
80508;SDS011;69838;52.602;13.434;2023-07-29T00:43:37;16.00;;;10.57;;
80508;SDS011;69838;52.602;13.434;2023-07-29T00:44:22;19.60;;;11.38;;
80508;SDS011;69838;52.602;13.434;2023-07-29T00:45:08;18.42;;;10.95;;
80508;SDS011;69838;52.602;13.434;2023-07-29T00:45:54;20.33;;;12.35;;
80508;SDS011;69838;52.602;13.434;2023-07-29T00:46:39;19.75;;;10.80;;
80508;SDS011;69838;52.602;13.434;2023-07-29T00:47:26;19.15;;;10.82;;
80508;SDS011;69838;52.602;13.434;2023-07-29T00:48:11;21.50;;;11.48;;
80508;SDS011;69838;52.602;13.434;2023-07-29T00:48:56;23.50;;;13.45;;
80508;SDS011;69838;52.602;13.434;2023-07-29T00:49:45;23.88;;;12.40;;
80508;SDS011;69838;52.602;13.434;2023-07-29T00:50:30;22.60;;;11.25;;
80508;SDS011;69838;52.602;13.434;2023-07-29T00:51:17;20.30;;;11.23;;
80508;SDS011;69838;52.602;13.434;2023-07-29T00:52:02;19.85;;;10.70;;
80508;SDS011;69838;52.602;13.434;2023-07-29T00:52:48;23.30;;;12.13;;
80508;SDS011;69838;52.602;13.434;2023-07-29T00:53:34;22.27;;;12.00;;
80508;SDS011;69838;52.602;13.434;2023-07-29T00:54:19;25.83;;;12.75;;
80508;SDS011;69838;52.602;13.434;2023-07-29T00:55:05;23.42;;;12.73;;
80508;SDS011;69838;52.602;13.434;2023-07-29T00:55:51;26.60;;;12.48;;
80508;SDS011;69838;52.602;13.434;2023-07-29T00:56:36;25.45;;;13.73;;
80508;SDS011;69838;52.602;13.434;2023-07-29T00:57:22;21.00;;;11.63;;
80508;SDS011;69838;52.602;13.434;2023-07-29T00:58:10;17.20;;;10.25;;
80508;SDS011;69838;52.602;13.434;2023-07-29T00:58:55;17.23;;;10.30;;
80508;SDS011;69838;52.602;13.434;2023-07-29T00:59:44;17.55;;;10.60;;
80508;SDS011;69838;52.602;13.434;2023-07-29T01:00:30;17.63;;;10.77;;
80508;SDS011;69838;52.602;13.434;2023-07-29T01:01:15;18.80;;;10.90;;
80508;SDS011;69838;52.602;13.434;2023-07-29T01:02:00;19.30;;;11.15;;
80508;SDS011;69838;52.602;13.434;2023-07-29T01:02:46;19.15;;;11.65;;
80508;SDS011;69838;52.602;13.434;2023-07-29T01:03:31;18.95;;;10.27;;
80508;SDS011;69838;52.602;13.434;2023-07-29T01:04:16;18.58;;;11.35;;
80508;SDS011;69838;52.602;13.434;2023-07-29T01:05:01;15.90;;;9.95;;
80508;SDS011;69838;52.602;13.434;2023-07-29T01:05:52;15.00;;;9.43;;
80508;SDS011;69838;52.602;13.434;2023-07-29T01:07:03;17.30;;;9.70;;
80508;SDS011;69838;52.602;13.434;2023-07-29T01:07:59;16.10;;;9.65;;
80508;SDS011;69838;52.602;13.434;2023-07-29T01:08:56;14.82;;;9.80;;
80508;SDS011;69838;52.602;13.434;2023-07-29T01:10:58;17.17;;;10.18;;
80508;SDS011;69838;52.602;13.434;2023-07-29T01:11:57;17.90;;;10.95;;
80508;SDS011;69838;52.602;13.434;2023-07-29T01:13:06;14.57;;;9.27;;
80508;SDS011;69838;52.602;13.434;2023-07-29T01:15:13;16.70;;;9.77;;
80508;SDS011;69838;52.602;13.434;2023-07-29T01:16:07;14.90;;;8.80;;
80508;SDS011;69838;52.602;13.434;2023-07-29T01:17:00;18.20;;;9.60;;
80508;SDS011;69838;52.602;13.434;2023-07-29T01:17:52;16.13;;;10.00;;
80508;SDS011;69838;52.602;13.434;2023-07-29T01:18:40;20.30;;;10.10;;
80508;SDS011;69838;52.602;13.434;2023-07-29T01:20:19;15.60;;;8.90;;
80508;SDS011;69838;52.602;13.434;2023-07-29T01:21:07;16.80;;;9.45;;
80508;SDS011;69838;52.602;13.434;2023-07-29T01:21:54;18.88;;;9.70;;
80508;SDS011;69838;52.602;13.434;2023-07-29T01:22:41;16.73;;;9.95;;
80508;SDS011;69838;52.602;13.434;2023-07-29T01:23:35;15.25;;;10.10;;
80508;SDS011;69838;52.602;13.434;2023-07-29T01:24:21;17.35;;;10.38;;
80508;SDS011;69838;52.602;13.434;2023-07-29T01:25:06;18.42;;;10.98;;
80508;SDS011;69838;52.602;13.434;2023-07-29T01:25:51;20.38;;;11.77;;
80508;SDS011;69838;52.602;13.434;2023-07-29T01:26:37;22.10;;;11.95;;
80508;SDS011;69838;52.602;13.434;2023-07-29T01:27:22;17.48;;;10.23;;
80508;SDS011;69838;52.602;13.434;2023-07-29T01:28:07;15.70;;;9.80;;
80508;SDS011;69838;52.602;13.434;2023-07-29T01:28:53;15.38;;;9.45;;
80508;SDS011;69838;52.602;13.434;2023-07-29T01:29:39;18.48;;;9.68;;
80508;SDS011;69838;52.602;13.434;2023-07-29T01:30:26;17.33;;;11.05;;
80508;SDS011;69838;52.602;13.434;2023-07-29T01:31:27;19.73;;;11.50;;
80508;SDS011;69838;52.602;13.434;2023-07-29T01:32:20;22.30;;;12.65;;
80508;SDS011;69838;52.602;13.434;2023-07-29T01:33:18;21.10;;;11.98;;
80508;SDS011;69838;52.602;13.434;2023-07-29T01:35:19;17.20;;;10.63;;
80508;SDS011;69838;52.602;13.434;2023-07-29T01:36:13;15.95;;;9.95;;
80508;SDS011;69838;52.602;13.434;2023-07-29T01:37:03;20.45;;;9.38;;
80508;SDS011;69838;52.602;13.434;2023-07-29T01:37:59;15.75;;;9.43;;
80508;SDS011;69838;52.602;13.434;2023-07-29T01:38:50;16.10;;;9.23;;
80508;SDS011;69838;52.602;13.434;2023-07-29T01:39:36;16.08;;;8.68;;
80508;SDS011;69838;52.602;13.434;2023-07-29T01:40:23;14.52;;;9.35;;
80508;SDS011;69838;52.602;13.434;2023-07-29T01:41:12;14.98;;;9.07;;
80508;SDS011;69838;52.602;13.434;2023-07-29T01:41:58;15.43;;;9.35;;
80508;SDS011;69838;52.602;13.434;2023-07-29T01:42:43;18.83;;;10.25;;
80508;SDS011;69838;52.602;13.434;2023-07-29T01:43:30;17.33;;;10.00;;
80508;SDS011;69838;52.602;13.434;2023-07-29T01:44:16;16.35;;;9.77;;
80508;SDS011;69838;52.602;13.434;2023-07-29T01:45:03;15.60;;;9.38;;
80508;SDS011;69838;52.602;13.434;2023-07-29T01:45:49;15.30;;;9.27;;
80508;SDS011;69838;52.602;13.434;2023-07-29T01:46:35;17.15;;;9.23;;
80508;SDS011;69838;52.602;13.434;2023-07-29T01:47:21;16.95;;;10.57;;
80508;SDS011;69838;52.602;13.434;2023-07-29T01:48:07;18.45;;;9.55;;
80508;SDS011;69838;52.602;13.434;2023-07-29T01:48:53;19.83;;;10.10;;
80508;SDS011;69838;52.602;13.434;2023-07-29T01:49:38;17.10;;;10.00;;
80508;SDS011;69838;52.602;13.434;2023-07-29T01:50:23;19.15;;;10.35;;
80508;SDS011;69838;52.602;13.434;2023-07-29T01:51:10;18.00;;;10.85;;
80508;SDS011;69838;52.602;13.434;2023-07-29T01:51:56;16.95;;;9.70;;
80508;SDS011;69838;52.602;13.434;2023-07-29T01:52:42;18.13;;;9.98;;
80508;SDS011;69838;52.602;13.434;2023-07-29T01:53:27;17.75;;;10.20;;
80508;SDS011;69838;52.602;13.434;2023-07-29T01:54:12;16.45;;;9.70;;
80508;SDS011;69838;52.602;13.434;2023-07-29T01:54:57;14.38;;;9.25;;
80508;SDS011;69838;52.602;13.434;2023-07-29T01:55:43;16.58;;;10.63;;
80508;SDS011;69838;52.602;13.434;2023-07-29T01:56:29;16.50;;;9.48;;
80508;SDS011;69838;52.602;13.434;2023-07-29T01:57:15;17.50;;;9.98;;
80508;SDS011;69838;52.602;13.434;2023-07-29T01:58:00;20.13;;;9.10;;
80508;SDS011;69838;52.602;13.434;2023-07-29T01:58:45;18.83;;;10.57;;
80508;SDS011;69838;52.602;13.434;2023-07-29T01:59:30;19.13;;;9.65;;
80508;SDS011;69838;52.602;13.434;2023-07-29T02:00:16;21.27;;;10.63;;
80508;SDS011;69838;52.602;13.434;2023-07-29T02:01:01;17.27;;;9.98;;
80508;SDS011;69838;52.602;13.434;2023-07-29T02:01:46;21.98;;;11.73;;
80508;SDS011;69838;52.602;13.434;2023-07-29T02:02:31;17.02;;;10.45;;
80508;SDS011;69838;52.602;13.434;2023-07-29T02:03:17;16.25;;;9.15;;
80508;SDS011;69838;52.602;13.434;2023-07-29T02:04:02;18.88;;;10.50;;
80508;SDS011;69838;52.602;13.434;2023-07-29T02:04:47;17.20;;;10.40;;
80508;SDS011;69838;52.602;13.434;2023-07-29T02:05:36;17.25;;;10.23;;
80508;SDS011;69838;52.602;13.434;2023-07-29T02:06:21;21.65;;;11.52;;
80508;SDS011;69838;52.602;13.434;2023-07-29T02:07:07;19.80;;;10.63;;
80508;SDS011;69838;52.602;13.434;2023-07-29T02:07:52;22.52;;;10.98;;
80508;SDS011;69838;52.602;13.434;2023-07-29T02:08:37;21.52;;;11.02;;
80508;SDS011;69838;52.602;13.434;2023-07-29T02:09:25;18.35;;;9.85;;
80508;SDS011;69838;52.602;13.434;2023-07-29T02:10:11;19.33;;;10.15;;
80508;SDS011;69838;52.602;13.434;2023-07-29T02:10:56;20.75;;;11.25;;
80508;SDS011;69838;52.602;13.434;2023-07-29T02:11:41;23.63;;;11.27;;
80508;SDS011;69838;52.602;13.434;2023-07-29T02:12:26;22.23;;;10.65;;
80508;SDS011;69838;52.602;13.434;2023-07-29T02:13:12;23.45;;;11.48;;
80508;SDS011;69838;52.602;13.434;2023-07-29T02:13:57;26.55;;;12.52;;
80508;SDS011;69838;52.602;13.434;2023-07-29T02:14:43;34.00;;;13.80;;
80508;SDS011;69838;52.602;13.434;2023-07-29T02:15:28;40.85;;;15.18;;
80508;SDS011;69838;52.602;13.434;2023-07-29T02:16:13;39.72;;;15.48;;
80508;SDS011;69838;52.602;13.434;2023-07-29T02:16:58;45.80;;;16.88;;
80508;SDS011;69838;52.602;13.434;2023-07-29T02:17:44;39.97;;;15.23;;
80508;SDS011;69838;52.602;13.434;2023-07-29T02:18:29;39.92;;;15.05;;
80508;SDS011;69838;52.602;13.434;2023-07-29T02:19:14;34.95;;;15.90;;
80508;SDS011;69838;52.602;13.434;2023-07-29T02:19:59;35.60;;;13.77;;
80508;SDS011;69838;52.602;13.434;2023-07-29T02:20:45;34.28;;;14.40;;
80508;SDS011;69838;52.602;13.434;2023-07-29T02:21:34;33.22;;;13.57;;
80508;SDS011;69838;52.602;13.434;2023-07-29T02:22:19;41.28;;;15.48;;
80508;SDS011;69838;52.602;13.434;2023-07-29T02:23:04;38.28;;;16.02;;
80508;SDS011;69838;52.602;13.434;2023-07-29T02:23:49;44.53;;;16.13;;
80508;SDS011;69838;52.602;13.434;2023-07-29T02:24:35;43.78;;;15.63;;
80508;SDS011;69838;52.602;13.434;2023-07-29T02:25:20;33.78;;;14.45;;
80508;SDS011;69838;52.602;13.434;2023-07-29T02:26:05;31.40;;;15.55;;
80508;SDS011;69838;52.602;13.434;2023-07-29T02:26:51;25.30;;;12.45;;
80508;SDS011;69838;52.602;13.434;2023-07-29T02:27:36;21.77;;;10.95;;
80508;SDS011;69838;52.602;13.434;2023-07-29T02:28:21;22.17;;;11.25;;
80508;SDS011;69838;52.602;13.434;2023-07-29T02:29:06;20.40;;;10.55;;
80508;SDS011;69838;52.602;13.434;2023-07-29T02:29:52;16.23;;;9.80;;
80508;SDS011;69838;52.602;13.434;2023-07-29T02:30:41;16.60;;;10.18;;
80508;SDS011;69838;52.602;13.434;2023-07-29T02:31:26;15.93;;;8.93;;
80508;SDS011;69838;52.602;13.434;2023-07-29T02:32:12;16.83;;;9.60;;
80508;SDS011;69838;52.602;13.434;2023-07-29T02:32:57;16.48;;;9.90;;
80508;SDS011;69838;52.602;13.434;2023-07-29T02:33:43;17.42;;;10.02;;
80508;SDS011;69838;52.602;13.434;2023-07-29T02:34:29;17.95;;;10.05;;
80508;SDS011;69838;52.602;13.434;2023-07-29T02:35:14;17.98;;;9.48;;
80508;SDS011;69838;52.602;13.434;2023-07-29T02:36:00;17.75;;;9.43;;
80508;SDS011;69838;52.602;13.434;2023-07-29T02:36:45;18.10;;;10.13;;
80508;SDS011;69838;52.602;13.434;2023-07-29T02:37:30;18.88;;;10.07;;
80508;SDS011;69838;52.602;13.434;2023-07-29T02:38:16;19.85;;;10.45;;
80508;SDS011;69838;52.602;13.434;2023-07-29T02:39:01;20.77;;;11.52;;
80508;SDS011;69838;52.602;13.434;2023-07-29T02:39:46;21.38;;;11.35;;
80508;SDS011;69838;52.602;13.434;2023-07-29T02:40:31;22.13;;;11.60;;
80508;SDS011;69838;52.602;13.434;2023-07-29T02:41:17;21.38;;;10.32;;
80508;SDS011;69838;52.602;13.434;2023-07-29T02:42:02;18.55;;;10.02;;
80508;SDS011;69838;52.602;13.434;2023-07-29T02:42:48;18.30;;;9.30;;
80508;SDS011;69838;52.602;13.434;2023-07-29T02:43:33;18.92;;;9.93;;
80508;SDS011;69838;52.602;13.434;2023-07-29T02:44:18;21.20;;;10.80;;
80508;SDS011;69838;52.602;13.434;2023-07-29T02:45:05;22.30;;;10.27;;
80508;SDS011;69838;52.602;13.434;2023-07-29T02:45:54;22.48;;;10.95;;
80508;SDS011;69838;52.602;13.434;2023-07-29T02:46:39;19.85;;;10.50;;
80508;SDS011;69838;52.602;13.434;2023-07-29T02:47:24;21.08;;;11.05;;
80508;SDS011;69838;52.602;13.434;2023-07-29T02:48:10;19.73;;;10.85;;
80508;SDS011;69838;52.602;13.434;2023-07-29T02:48:55;19.90;;;10.52;;
80508;SDS011;69838;52.602;13.434;2023-07-29T02:49:40;23.85;;;12.30;;
80508;SDS011;69838;52.602;13.434;2023-07-29T02:50:26;26.80;;;12.18;;
80508;SDS011;69838;52.602;13.434;2023-07-29T02:51:11;23.50;;;11.75;;
80508;SDS011;69838;52.602;13.434;2023-07-29T02:51:56;23.55;;;11.48;;
80508;SDS011;69838;52.602;13.434;2023-07-29T02:52:41;22.90;;;11.25;;
80508;SDS011;69838;52.602;13.434;2023-07-29T02:53:27;24.60;;;11.75;;
80508;SDS011;69838;52.602;13.434;2023-07-29T02:54:12;22.73;;;11.70;;
80508;SDS011;69838;52.602;13.434;2023-07-29T02:54:57;25.55;;;12.25;;
80508;SDS011;69838;52.602;13.434;2023-07-29T02:55:42;27.58;;;12.25;;
80508;SDS011;69838;52.602;13.434;2023-07-29T02:56:28;33.55;;;13.90;;
80508;SDS011;69838;52.602;13.434;2023-07-29T02:57:13;37.50;;;14.35;;
80508;SDS011;69838;52.602;13.434;2023-07-29T02:57:58;33.67;;;14.20;;
80508;SDS011;69838;52.602;13.434;2023-07-29T02:58:43;30.63;;;13.65;;
80508;SDS011;69838;52.602;13.434;2023-07-29T02:59:29;24.80;;;12.55;;
80508;SDS011;69838;52.602;13.434;2023-07-29T03:00:15;25.23;;;11.40;;
80508;SDS011;69838;52.602;13.434;2023-07-29T03:01:00;22.63;;;11.13;;
80508;SDS011;69838;52.602;13.434;2023-07-29T03:01:47;21.33;;;11.13;;
80508;SDS011;69838;52.602;13.434;2023-07-29T03:02:32;20.77;;;10.73;;
80508;SDS011;69838;52.602;13.434;2023-07-29T03:03:17;19.38;;;10.63;;
80508;SDS011;69838;52.602;13.434;2023-07-29T03:04:04;22.67;;;12.98;;
80508;SDS011;69838;52.602;13.434;2023-07-29T03:04:49;22.20;;;10.98;;
80508;SDS011;69838;52.602;13.434;2023-07-29T03:05:35;20.88;;;11.35;;
80508;SDS011;69838;52.602;13.434;2023-07-29T03:06:20;25.15;;;12.48;;
80508;SDS011;69838;52.602;13.434;2023-07-29T03:07:05;24.27;;;11.77;;
80508;SDS011;69838;52.602;13.434;2023-07-29T03:07:51;24.73;;;11.35;;
80508;SDS011;69838;52.602;13.434;2023-07-29T03:08:36;25.83;;;12.18;;
80508;SDS011;69838;52.602;13.434;2023-07-29T03:09:21;27.73;;;13.25;;
80508;SDS011;69838;52.602;13.434;2023-07-29T03:10:07;27.45;;;13.15;;
80508;SDS011;69838;52.602;13.434;2023-07-29T03:10:52;33.58;;;12.85;;
80508;SDS011;69838;52.602;13.434;2023-07-29T03:11:37;25.88;;;11.70;;
80508;SDS011;69838;52.602;13.434;2023-07-29T03:12:23;22.60;;;11.63;;
80508;SDS011;69838;52.602;13.434;2023-07-29T03:13:08;19.88;;;10.43;;
80508;SDS011;69838;52.602;13.434;2023-07-29T03:13:53;19.85;;;10.85;;
80508;SDS011;69838;52.602;13.434;2023-07-29T03:14:38;23.48;;;11.35;;
80508;SDS011;69838;52.602;13.434;2023-07-29T03:15:24;23.20;;;11.48;;
80508;SDS011;69838;52.602;13.434;2023-07-29T03:16:11;19.77;;;10.60;;
80508;SDS011;69838;52.602;13.434;2023-07-29T03:17:01;23.38;;;11.55;;
80508;SDS011;69838;52.602;13.434;2023-07-29T03:17:47;23.00;;;11.10;;
80508;SDS011;69838;52.602;13.434;2023-07-29T03:18:33;27.13;;;12.77;;
80508;SDS011;69838;52.602;13.434;2023-07-29T03:19:18;22.45;;;10.82;;
80508;SDS011;69838;52.602;13.434;2023-07-29T03:20:04;23.70;;;11.77;;
80508;SDS011;69838;52.602;13.434;2023-07-29T03:20:49;25.30;;;11.45;;
80508;SDS011;69838;52.602;13.434;2023-07-29T03:21:34;32.92;;;14.07;;
80508;SDS011;69838;52.602;13.434;2023-07-29T03:22:20;25.70;;;11.27;;
80508;SDS011;69838;52.602;13.434;2023-07-29T03:23:05;35.25;;;14.77;;
80508;SDS011;69838;52.602;13.434;2023-07-29T03:23:50;27.25;;;13.25;;
80508;SDS011;69838;52.602;13.434;2023-07-29T03:24:36;27.13;;;12.00;;
80508;SDS011;69838;52.602;13.434;2023-07-29T03:25:22;25.50;;;11.57;;
80508;SDS011;69838;52.602;13.434;2023-07-29T03:26:08;29.85;;;13.27;;
80508;SDS011;69838;52.602;13.434;2023-07-29T03:26:56;35.00;;;14.05;;
80508;SDS011;69838;52.602;13.434;2023-07-29T03:27:41;32.00;;;14.63;;
80508;SDS011;69838;52.602;13.434;2023-07-29T03:28:27;26.67;;;12.10;;
80508;SDS011;69838;52.602;13.434;2023-07-29T03:29:14;26.58;;;12.40;;
80508;SDS011;69838;52.602;13.434;2023-07-29T03:29:59;22.10;;;11.23;;
80508;SDS011;69838;52.602;13.434;2023-07-29T03:30:45;26.20;;;12.57;;
80508;SDS011;69838;52.602;13.434;2023-07-29T03:31:30;22.17;;;11.35;;
80508;SDS011;69838;52.602;13.434;2023-07-29T03:32:15;28.33;;;13.23;;
80508;SDS011;69838;52.602;13.434;2023-07-29T03:33:00;31.20;;;13.27;;
80508;SDS011;69838;52.602;13.434;2023-07-29T03:33:45;35.60;;;14.15;;
80508;SDS011;69838;52.602;13.434;2023-07-29T03:34:31;38.17;;;13.55;;
80508;SDS011;69838;52.602;13.434;2023-07-29T03:35:16;37.45;;;14.70;;
80508;SDS011;69838;52.602;13.434;2023-07-29T03:36:02;35.75;;;13.68;;
80508;SDS011;69838;52.602;13.434;2023-07-29T03:36:47;27.05;;;11.60;;
80508;SDS011;69838;52.602;13.434;2023-07-29T03:37:32;23.52;;;11.82;;
80508;SDS011;69838;52.602;13.434;2023-07-29T03:38:18;20.38;;;9.93;;
80508;SDS011;69838;52.602;13.434;2023-07-29T03:39:03;19.80;;;11.30;;
80508;SDS011;69838;52.602;13.434;2023-07-29T03:39:48;21.40;;;11.82;;
80508;SDS011;69838;52.602;13.434;2023-07-29T03:40:33;18.95;;;10.73;;
80508;SDS011;69838;52.602;13.434;2023-07-29T03:41:19;19.95;;;10.60;;
80508;SDS011;69838;52.602;13.434;2023-07-29T03:42:04;22.05;;;11.48;;
80508;SDS011;69838;52.602;13.434;2023-07-29T03:42:49;24.42;;;11.45;;
80508;SDS011;69838;52.602;13.434;2023-07-29T03:43:35;26.15;;;11.88;;
80508;SDS011;69838;52.602;13.434;2023-07-29T03:44:20;29.25;;;13.40;;
80508;SDS011;69838;52.602;13.434;2023-07-29T03:45:05;31.30;;;14.05;;
80508;SDS011;69838;52.602;13.434;2023-07-29T03:45:51;31.95;;;13.73;;
80508;SDS011;69838;52.602;13.434;2023-07-29T03:46:36;32.75;;;13.23;;
80508;SDS011;69838;52.602;13.434;2023-07-29T03:47:22;28.25;;;12.68;;
80508;SDS011;69838;52.602;13.434;2023-07-29T03:48:07;32.67;;;13.65;;
80508;SDS011;69838;52.602;13.434;2023-07-29T03:48:52;37.70;;;15.15;;
80508;SDS011;69838;52.602;13.434;2023-07-29T03:49:37;35.90;;;15.13;;
80508;SDS011;69838;52.602;13.434;2023-07-29T03:50:23;44.78;;;16.83;;
80508;SDS011;69838;52.602;13.434;2023-07-29T03:51:09;41.67;;;16.45;;
80508;SDS011;69838;52.602;13.434;2023-07-29T03:51:54;49.70;;;17.40;;
80508;SDS011;69838;52.602;13.434;2023-07-29T03:52:39;49.28;;;19.08;;
80508;SDS011;69838;52.602;13.434;2023-07-29T03:53:25;51.33;;;18.52;;
80508;SDS011;69838;52.602;13.434;2023-07-29T03:54:10;51.75;;;18.30;;
80508;SDS011;69838;52.602;13.434;2023-07-29T03:54:55;54.30;;;19.10;;
80508;SDS011;69838;52.602;13.434;2023-07-29T03:55:40;53.80;;;18.55;;
80508;SDS011;69838;52.602;13.434;2023-07-29T03:56:26;49.30;;;19.15;;
80508;SDS011;69838;52.602;13.434;2023-07-29T03:57:11;62.03;;;20.65;;
80508;SDS011;69838;52.602;13.434;2023-07-29T03:57:59;56.90;;;19.77;;
80508;SDS011;69838;52.602;13.434;2023-07-29T03:58:45;56.28;;;19.13;;
80508;SDS011;69838;52.602;13.434;2023-07-29T03:59:33;56.42;;;20.45;;
80508;SDS011;69838;52.602;13.434;2023-07-29T04:00:18;54.45;;;19.17;;
80508;SDS011;69838;52.602;13.434;2023-07-29T04:01:03;56.17;;;19.65;;
80508;SDS011;69838;52.602;13.434;2023-07-29T04:01:49;52.97;;;19.20;;
80508;SDS011;69838;52.602;13.434;2023-07-29T04:02:34;55.42;;;19.25;;
80508;SDS011;69838;52.602;13.434;2023-07-29T04:03:22;51.00;;;18.13;;
80508;SDS011;69838;52.602;13.434;2023-07-29T04:04:07;56.30;;;20.05;;
80508;SDS011;69838;52.602;13.434;2023-07-29T04:04:52;48.80;;;18.88;;
80508;SDS011;69838;52.602;13.434;2023-07-29T04:05:38;46.13;;;17.77;;
80508;SDS011;69838;52.602;13.434;2023-07-29T04:06:23;50.72;;;18.98;;
80508;SDS011;69838;52.602;13.434;2023-07-29T04:07:08;44.80;;;17.20;;
80508;SDS011;69838;52.602;13.434;2023-07-29T04:07:54;44.25;;;16.88;;
80508;SDS011;69838;52.602;13.434;2023-07-29T04:08:39;39.55;;;16.02;;
80508;SDS011;69838;52.602;13.434;2023-07-29T04:09:26;41.83;;;16.92;;
80508;SDS011;69838;52.602;13.434;2023-07-29T04:10:11;41.15;;;17.02;;
80508;SDS011;69838;52.602;13.434;2023-07-29T04:10:56;45.65;;;17.23;;
80508;SDS011;69838;52.602;13.434;2023-07-29T04:11:41;41.72;;;17.25;;
80508;SDS011;69838;52.602;13.434;2023-07-29T04:12:27;44.88;;;17.58;;
80508;SDS011;69838;52.602;13.434;2023-07-29T04:13:12;41.95;;;17.10;;
80508;SDS011;69838;52.602;13.434;2023-07-29T04:13:57;41.08;;;16.48;;
80508;SDS011;69838;52.602;13.434;2023-07-29T04:14:43;39.55;;;17.52;;
80508;SDS011;69838;52.602;13.434;2023-07-29T04:15:28;40.65;;;17.70;;
80508;SDS011;69838;52.602;13.434;2023-07-29T04:16:13;42.03;;;17.38;;
80508;SDS011;69838;52.602;13.434;2023-07-29T04:16:58;44.83;;;18.05;;
80508;SDS011;69838;52.602;13.434;2023-07-29T04:17:43;46.95;;;18.30;;
80508;SDS011;69838;52.602;13.434;2023-07-29T04:18:29;47.42;;;19.15;;
80508;SDS011;69838;52.602;13.434;2023-07-29T04:19:14;48.90;;;19.45;;
80508;SDS011;69838;52.602;13.434;2023-07-29T04:19:59;47.78;;;18.02;;
80508;SDS011;69838;52.602;13.434;2023-07-29T04:20:44;45.85;;;18.73;;
80508;SDS011;69838;52.602;13.434;2023-07-29T04:21:30;48.97;;;18.23;;
80508;SDS011;69838;52.602;13.434;2023-07-29T04:22:15;49.92;;;18.60;;
80508;SDS011;69838;52.602;13.434;2023-07-29T04:23:01;43.67;;;17.48;;
80508;SDS011;69838;52.602;13.434;2023-07-29T04:23:46;45.05;;;18.10;;
80508;SDS011;69838;52.602;13.434;2023-07-29T04:24:32;40.13;;;16.90;;
80508;SDS011;69838;52.602;13.434;2023-07-29T04:25:17;37.63;;;16.55;;
80508;SDS011;69838;52.602;13.434;2023-07-29T04:26:02;30.08;;;14.55;;
80508;SDS011;69838;52.602;13.434;2023-07-29T04:26:47;32.83;;;14.88;;
80508;SDS011;69838;52.602;13.434;2023-07-29T04:27:32;27.27;;;14.27;;
80508;SDS011;69838;52.602;13.434;2023-07-29T04:28:18;26.30;;;15.27;;
80508;SDS011;69838;52.602;13.434;2023-07-29T04:29:03;28.98;;;14.68;;
80508;SDS011;69838;52.602;13.434;2023-07-29T04:29:48;27.48;;;14.95;;
80508;SDS011;69838;52.602;13.434;2023-07-29T04:30:33;27.35;;;14.60;;
80508;SDS011;69838;52.602;13.434;2023-07-29T04:31:19;28.92;;;15.07;;